Airfield :
LOGIN :

Register | Disclaimer

   EN    FR    IT 

 










Legend :    VFR   Marginal VFR   IFR   Intensive IFR   Very Intensive IFR
Visi :
Ceiling :
>= 8 km
>= 3000ft
5 to 8 km
1000 to 3000 ft
1500m to 5 km
500 to 1000 ft
800 to 1500m
200 to 500 ft
< 800m
< 200 ft
Symbols :   Thunderstorms  Fog  Heavy snow  Heavy precipitations  Wind > 20 kt
SIGMETs :     Misc.  Thunderstorms  Icing  Turbulence  Mountain Waves  Volcanic Ashes






- Airport Elevation : 856 ft
- IATA code : VGO


LEVX - Vigo Peinador

CURRENT METAR :
  • 092030Z 21004KT 0300 R19/P2000N R01/0450N RA BCFG FEW001 BKN002 OVC004 15/15 Q1024 NOSIG

EXPIRED METARs :
  • 092000Z 19005KT 0500 R19/1900N R01/0750D -RA BCFG FEW001 BKN002 OVC003 15/15 Q1023 NOSIG
  • 091942Z 20005KT 1400 R19/P2000N R01/1800U -DZ BCFG VV002 15/15 Q1023 NOSIG
  • 091914Z 20005KT 160V230 2500 BCFG VV002 15/15 Q1023 NOSIG
  • 091900Z 21005KT 180V240 1900 -DZ BCFG VV001 15/15 Q1023 NOSIG
  • 091830Z 22007KT 190V250 0500 R19/1400U R01/1900N -RA BCFG VV002 15/15 Q1023 NOSIG
  • 091814Z 22007KT 190V260 0500 R19/0550D R01/P2000N -DZ BCFG VV001 15/15 Q1023 NOSIG
  • 091800Z 23007KT 190V260 0900 R19/1300U R01/P2000N -DZ BCFG VV002 15/15 Q1023 NOSIG
  • 091742Z 23010KT 200V260 0700 R19/1700D R01/P2000N -DZ FG VV002 16/15 Q1023 NOSIG
  • 091700Z 23007KT 200V270 1400 R19/1900U R01/P2000N -RA BR FEW001 OVC002 16/15 Q1023 RERA NOSIG
  • 091650Z 23007KT 200V270 2000 0800N -RA BR SCT001 OVC002 16/15 Q1023 RERA NOSIG
  • 091630Z 23011KT 200V260 3800 -RA BR BKN002 OVC004 16/16 Q1023 RERA NOSIG
  • 091600Z 22008KT 180V260 2300 RA BR FEW002 BKN003 OVC005 16/16 Q1022 NOSIG

TAF COR TAF LEVX
Valid from the 09 at 18:00 until the 10 at 18:00 UTC


091753Z 0918/1018 20009KT 6000 SCT005 BKN016 TX17/1013Z TN15/0921Z
PROB40
TEMPO 0918/1003 0350 FG VV001
PROB30
TEMPO 0918/1003 3000 BR BKN005
PROB40
TEMPO 1003/1012 3000 BR BKN005
PROB30
TEMPO 1003/1010 0350 FG VV001



MET'MAP, your aeronautical weather chart ! - Copyright ORBIFLY December 2007 - Disclaimer

ORBIFLY MET'MAP TEAM :

Programming & Development : Alexandra Zaïnal
Original concept : Baudouin d'Aumeries
Technical & hardware support : Manuel Goepfert
Assistance : Marc-Olivier Méhu




SOURCES & CREDITS :

   NOAA